createdAt,value
2022-07-29T00:02:10.297Z,97553.88
2022-07-29T00:12:13.028Z,97554.56
2022-07-29T00:22:16.650Z,97556.72
2022-07-29T00:32:19.448Z,97551.63
2022-07-29T00:42:22.148Z,97542.13
2022-07-29T00:52:25.187Z,97536.19
2022-07-29T01:02:28.375Z,97526.41
2022-07-29T01:12:35.094Z,97521.09
2022-07-29T01:22:40.623Z,97503.19
2022-07-29T01:32:51.387Z,97493.19
2022-07-29T01:42:58.230Z,97485.97
2022-07-29T01:53:06.039Z,97483.38
2022-07-29T02:03:12.489Z,97471.75
2022-07-29T02:13:16.963Z,97468.72
2022-07-29T02:23:24.829Z,97448.19
2022-07-29T02:33:29.389Z,97458.53
2022-07-29T02:43:34.238Z,97458.75
2022-07-29T02:53:39.093Z,97455.75
2022-07-29T03:03:45.960Z,97440.47
2022-07-29T03:13:49.986Z,97448.09
2022-07-29T03:23:52.733Z,97458.09
2022-07-29T03:33:55.478Z,97458.47
2022-07-29T03:44:00.034Z,97454.38
2022-07-29T03:54:09.674Z,97459.25
2022-07-29T04:04:13.727Z,97462.75
2022-07-29T04:14:17.222Z,97443.66
2022-07-29T04:24:21.273Z,97443.34
2022-07-29T04:34:28.255Z,97438.50
2022-07-29T04:44:31.151Z,97438.72
2022-07-29T04:54:39.995Z,97442.16
2022-07-29T05:04:42.914Z,97436.59
2022-07-29T05:14:45.646Z,97439.13
2022-07-29T05:24:48.477Z,97445.38
2022-07-29T05:34:51.930Z,97439.00
2022-07-29T05:44:54.994Z,97448.81
2022-07-29T05:54:58.060Z,97446.94
2022-07-29T06:05:00.994Z,97444.09
2022-07-29T06:15:04.575Z,97453.59
2022-07-29T06:25:07.723Z,97438.00
2022-07-29T06:45:36.737Z,97437.97
2022-07-29T06:55:39.469Z,97432.94
2022-07-29T07:05:42.365Z,97434.81
2022-07-29T07:15:46.165Z,97424.00
2022-07-29T07:25:48.992Z,97419.38
2022-07-29T07:35:51.867Z,97426.00
2022-07-29T07:45:54.719Z,97428.81
2022-07-29T07:56:13.702Z,97428.66
2022-07-29T08:06:16.854Z,97432.19
2022-07-29T08:16:19.715Z,97427.75
2022-07-29T08:26:23.889Z,97431.19
2022-07-29T08:36:27.535Z,97436.22
2022-07-29T08:46:30.311Z,97431.41
2022-07-29T08:56:34.706Z,97418.31
2022-07-29T09:06:41.222Z,97418.34
2022-07-29T09:16:56.297Z,97419.50
2022-07-29T09:26:59.080Z,97407.88
2022-07-29T09:37:01.865Z,97400.22
2022-07-29T09:47:09.821Z,97398.84
2022-07-29T09:57:30.190Z,97398.16
2022-07-29T10:07:57.233Z,97392.03
2022-07-29T10:18:01.572Z,97392.25
2022-07-29T10:28:04.558Z,97382.25
2022-07-29T10:38:35.998Z,97377.91
2022-07-29T10:49:06.113Z,97376.03
2022-07-29T10:59:23.016Z,97363.06
2022-07-29T11:09:37.723Z,97356.44
2022-07-29T11:19:46.776Z,97354.22
2022-07-29T11:29:56.392Z,97362.41
2022-07-29T11:40:02.185Z,97353.56
2022-07-29T11:50:10.300Z,97352.44
2022-07-29T12:00:18.676Z,97332.16
2022-07-29T12:10:30.017Z,97334.50
2022-07-29T12:20:37.207Z,97338.09
2022-07-29T12:30:43.414Z,97339.69
2022-07-29T12:40:49.609Z,97337.69
2022-07-29T12:50:58.375Z,97336.50
2022-07-29T13:01:19.394Z,97333.69
2022-07-29T13:11:52.838Z,97337.34
2022-07-29T13:21:57.798Z,97326.94
2022-07-29T13:32:01.868Z,97321.75
2022-07-29T13:42:10.520Z,97312.91
2022-07-29T13:52:13.955Z,97312.50
2022-07-29T14:02:16.667Z,97311.75
2022-07-29T14:12:20.331Z,97312.50
2022-07-29T14:22:25.419Z,97304.53
2022-07-29T14:32:28.415Z,97311.69
2022-07-29T14:42:32.955Z,97302.91
2022-07-29T14:52:35.851Z,97304.09
2022-07-29T15:03:00.505Z,97302.09
2022-07-29T15:13:01.850Z,97300.81
2022-07-29T15:23:05.067Z,97288.00
2022-07-29T15:33:10.255Z,97295.91
2022-07-29T15:43:13.129Z,97290.56
2022-07-29T15:53:16.157Z,97284.19
2022-07-29T16:03:18.943Z,97277.38
2022-07-29T16:13:21.664Z,97285.38
2022-07-29T16:23:25.021Z,97265.41
2022-07-29T16:33:27.881Z,97274.13
2022-07-29T16:43:30.594Z,97270.94
2022-07-29T16:53:34.785Z,97264.81
2022-07-29T17:04:00.184Z,97259.56
2022-07-29T17:14:03.281Z,97265.63
2022-07-29T17:24:12.229Z,97259.59
2022-07-29T17:34:15.114Z,97266.44
2022-07-29T17:44:17.796Z,97274.31
2022-07-29T17:54:20.531Z,97276.59
2022-07-29T18:04:23.792Z,97276.06
2022-07-29T18:15:19.036Z,97270.25
2022-07-29T18:25:25.722Z,97282.97
2022-07-29T18:35:32.964Z,97280.75
2022-07-29T18:45:35.995Z,97264.50
2022-07-29T18:55:42.544Z,97282.53
2022-07-29T19:05:45.216Z,97298.53
2022-07-29T19:15:47.960Z,97304.94
2022-07-29T19:25:53.697Z,97321.59
2022-07-29T19:35:57.043Z,97321.69
2022-07-29T19:46:00.519Z,97318.34
2022-07-29T19:56:03.492Z,97324.78
2022-07-29T20:10:14.292Z,97315.41
2022-07-29T20:20:20.260Z,97307.28
2022-07-29T20:30:52.404Z,97318.00
2022-07-29T20:40:59.205Z,97312.28
2022-07-29T20:51:02.101Z,97299.56
2022-07-29T21:01:06.280Z,97299.97
2022-07-29T21:11:09.410Z,97295.81
2022-07-29T21:21:16.840Z,97286.31
2022-07-29T21:31:19.848Z,97295.97
2022-07-29T21:41:22.815Z,97317.50
2022-07-29T21:51:25.810Z,97317.31
2022-07-29T22:10:12.808Z,97268.66
2022-07-29T22:27:36.719Z,97283.34
2022-07-29T22:37:39.834Z,97271.53
2022-07-29T22:47:48.367Z,97259.06
2022-07-29T22:57:52.353Z,97239.31
2022-07-29T23:07:55.086Z,97238.63
2022-07-29T23:17:59.190Z,97229.38
2022-07-29T23:28:02.163Z,97217.09
2022-07-29T23:38:05.002Z,97206.94
2022-07-29T23:48:08.960Z,97213.91
2022-07-29T23:58:11.700Z,97202.59
